LER2968 SVMI-MDSD
Flight info
| Callsign | LER2968 |
|---|---|
| Flight time | N/A |
| Altitude | 32000 |
| Route | ARMUR L337 KBEZA/N0448F340 L337 NEGON DCT KARIB KARIB2G |
| Aircraft | MD82/M-SDFGIRWY/S |
Departure
| Time | 2026-05-06 23:47 |
|---|---|
| Airport | Maiquetía Simón Bolívar International Airport (SVMI) |
Arrival
| Time | N/A |
|---|---|
| Airport | Las Américas International Airport (MDSD) |
| Time | Latitude | Longitude | Altitude | Speed | Heading |
|---|---|---|---|---|---|
| 2026-05-06 23:15 | 10.59826 | -67.00727 | 235 ft | 0 kts | 178° |
| 2026-05-06 23:33 | 10.59839 | -67.00727 | 235 ft | 4 kts | 178° |
| 2026-05-06 23:33 | 10.59867 | -67.00728 | 237 ft | 4 kts | 178° |
| 2026-05-06 23:33 | 10.59893 | -67.00729 | 238 ft | 3 kts | 178° |
| 2026-05-06 23:34 | 10.59915 | -67.00726 | 238 ft | 4 kts | 214° |
| 2026-05-06 23:34 | 10.59920 | -67.00717 | 237 ft | 4 kts | 282° |
| 2026-05-06 23:34 | 10.59914 | -67.00691 | 235 ft | 4 kts | 274° |
| 2026-05-06 23:34 | 10.59914 | -67.00680 | 235 ft | 1 kts | 268° |
| 2026-05-06 23:35 | 10.59914 | -67.00679 | 235 ft | 0 kts | 268° |
| 2026-05-06 23:40 | 10.59914 | -67.00681 | 235 ft | 1 kts | 268° |
| 2026-05-06 23:41 | 10.59914 | -67.00689 | 235 ft | 1 kts | 268° |
| 2026-05-06 23:41 | 10.59915 | -67.00702 | 236 ft | 3 kts | 278° |
| 2026-05-06 23:41 | 10.59950 | -67.00732 | 234 ft | 10 kts | 354° |
| 2026-05-06 23:41 | 10.60020 | -67.00754 | 234 ft | 9 kts | 295° |
| 2026-05-06 23:42 | 10.60062 | -67.00798 | 234 ft | 8 kts | 342° |
| 2026-05-06 23:42 | 10.60122 | -67.00800 | 233 ft | 8 kts | 352° |
| 2026-05-06 23:42 | 10.60127 | -67.00804 | 233 ft | 1 kts | 307° |
| 2026-05-06 23:42 | 10.60128 | -67.00807 | 233 ft | 0 kts | 284° |
| 2026-05-06 23:43 | 10.60129 | -67.00810 | 233 ft | 3 kts | 284° |
| 2026-05-06 23:43 | 10.60131 | -67.00847 | 233 ft | 7 kts | 268° |
| 2026-05-06 23:43 | 10.60129 | -67.00914 | 235 ft | 11 kts | 268° |
| 2026-05-06 23:43 | 10.60127 | -67.01006 | 236 ft | 15 kts | 268° |
| 2026-05-06 23:44 | 10.60124 | -67.01109 | 238 ft | 17 kts | 268° |
| 2026-05-06 23:44 | 10.60122 | -67.01170 | 240 ft | 5 kts | 268° |
| 2026-05-06 23:44 | 10.60125 | -67.01199 | 240 ft | 2 kts | 271° |
| 2026-05-06 23:44 | 10.60125 | -67.01212 | 240 ft | 1 kts | 269° |
| 2026-05-06 23:45 | 10.60125 | -67.01215 | 240 ft | 2 kts | 269° |
| 2026-05-06 23:45 | 10.60137 | -67.01240 | 241 ft | 7 kts | 322° |
| 2026-05-06 23:45 | 10.60217 | -67.01252 | 239 ft | 14 kts | 359° |
| 2026-05-06 23:45 | 10.60312 | -67.01255 | 240 ft | 13 kts | 358° |
| 2026-05-06 23:46 | 10.60377 | -67.01221 | 241 ft | 11 kts | 73° |
| 2026-05-06 23:46 | 10.60384 | -67.01134 | 239 ft | 13 kts | 89° |
| 2026-05-06 23:46 | 10.60387 | -67.01009 | 236 ft | 26 kts | 89° |
| 2026-05-06 23:46 | 10.60397 | -67.00642 | 232 ft | 81 kts | 89° |
| 2026-05-06 23:47 | 10.60418 | -66.99852 | 217 ft | 141 kts | 89° |
| 2026-05-06 23:47 | 10.60453 | -66.98675 | 203 ft | 191 kts | 88° |
| 2026-05-06 23:47 | 10.60520 | -66.97300 | 850 ft | 191 kts | 88° |
| 2026-05-06 23:47 | 10.60592 | -66.96054 | 2057 ft | 167 kts | 87° |
| 2026-05-06 23:48 | 10.60696 | -66.94857 | 2613 ft | 184 kts | 83° |
| 2026-05-06 23:48 | 10.60976 | -66.93547 | 3201 ft | 189 kts | 71° |
| 2026-05-06 23:48 | 10.61494 | -66.92458 | 4229 ft | 170 kts | 56° |
| 2026-05-06 23:48 | 10.62291 | -66.91516 | 4711 ft | 188 kts | 51° |
| 2026-05-06 23:49 | 10.62941 | -66.90308 | 4947 ft | 207 kts | 83° |
| 2026-05-06 23:49 | 10.62753 | -66.88853 | 5339 ft | 214 kts | 117° |
| 2026-05-06 23:49 | 10.61748 | -66.87749 | 5801 ft | 219 kts | 153° |
| 2026-05-06 23:49 | 10.60285 | -66.87331 | 6395 ft | 213 kts | 167° |
| 2026-05-06 23:50 | 10.58927 | -66.87009 | 7183 ft | 200 kts | 156° |
| 2026-05-06 23:50 | 10.56785 | -66.84930 | 7769 ft | 219 kts | 116° |
| 2026-05-06 23:50 | 10.56260 | -66.83625 | 9051 ft | 185 kts | 105° |
| 2026-05-06 23:51 | 10.56059 | -66.82335 | 9286 ft | 195 kts | 92° |
| 2026-05-06 23:51 | 10.56166 | -66.80778 | 8809 ft | 243 kts | 83° |
| 2026-05-06 23:51 | 10.56537 | -66.79124 | 9589 ft | 222 kts | 73° |
| 2026-05-06 23:51 | 10.57063 | -66.77816 | 10859 ft | 188 kts | 67° |
| 2026-05-06 23:52 | 10.57720 | -66.76594 | 11014 ft | 218 kts | 61° |
| 2026-05-06 23:52 | 10.58718 | -66.75235 | 10789 ft | 264 kts | 46° |
| 2026-05-06 23:52 | 10.60343 | -66.74104 | 10833 ft | 298 kts | 22° |
| 2026-05-06 23:52 | 10.62459 | -66.73766 | 10829 ft | 323 kts | 356° |
| 2026-05-06 23:53 | 10.64579 | -66.74408 | 10686 ft | 319 kts | 330° |
| 2026-05-06 23:53 | 10.66175 | -66.75912 | 10965 ft | 314 kts | 303° |
| 2026-05-06 23:53 | 10.67071 | -66.77978 | 11153 ft | 330 kts | 289° |
| 2026-05-06 23:53 | 10.68161 | -66.80063 | 11311 ft | 344 kts | 312° |
| 2026-05-06 23:54 | 10.70030 | -66.81571 | 11467 ft | 353 kts | 336° |
| 2026-05-06 23:54 | 10.72429 | -66.82276 | 11633 ft | 360 kts | 358° |
| 2026-05-06 23:54 | 10.74902 | -66.82066 | 11831 ft | 363 kts | 19° |
| 2026-05-06 23:54 | 10.77166 | -66.80992 | 11931 ft | 360 kts | 38° |
| 2026-05-06 23:55 | 10.79207 | -66.79523 | 11955 ft | 360 kts | 34° |
| 2026-05-06 23:55 | 10.81488 | -66.78414 | 12137 ft | 369 kts | 21° |
| 2026-05-06 23:55 | 10.83972 | -66.77745 | 12751 ft | 370 kts | 13° |
| 2026-05-06 23:55 | 10.86511 | -66.77349 | 13429 ft | 370 kts | 8° |
| 2026-05-06 23:56 | 10.89051 | -66.77120 | 13984 ft | 372 kts | 6° |
| 2026-05-06 23:56 | 10.91636 | -66.76993 | 14500 ft | 374 kts | 4° |
| 2026-05-06 23:56 | 10.94248 | -66.76922 | 15014 ft | 375 kts | 3° |
| 2026-05-06 23:56 | 10.96866 | -66.76875 | 15512 ft | 378 kts | 2° |
| 2026-05-06 23:57 | 10.99504 | -66.76831 | 16009 ft | 380 kts | 2° |
| 2026-05-06 23:57 | 11.02144 | -66.76782 | 16530 ft | 381 kts | 2° |
| 2026-05-06 23:57 | 11.04815 | -66.76721 | 17040 ft | 383 kts | 2° |
| 2026-05-06 23:57 | 11.07489 | -66.76650 | 17531 ft | 385 kts | 2° |
| 2026-05-06 23:58 | 11.10163 | -66.76573 | 18018 ft | 386 kts | 3° |
| 2026-05-06 23:58 | 11.12811 | -66.76494 | 18514 ft | 387 kts | 2° |
| 2026-05-06 23:58 | 11.15545 | -66.76410 | 18897 ft | 391 kts | 2° |
| 2026-05-06 23:58 | 11.18232 | -66.76329 | 19266 ft | 394 kts | 2° |
| 2026-05-06 23:59 | 11.20986 | -66.76245 | 19649 ft | 398 kts | 2° |
| 2026-05-06 23:59 | 11.23765 | -66.76160 | 20050 ft | 401 kts | 2° |
| 2026-05-06 23:59 | 11.26561 | -66.76076 | 20469 ft | 403 kts | 2° |
| 2026-05-06 23:59 | 11.29372 | -66.75993 | 20845 ft | 406 kts | 2° |
| 2026-05-07 00:00 | 11.32200 | -66.75911 | 21188 ft | 409 kts | 2° |
| 2026-05-07 00:00 | 11.35063 | -66.75828 | 21545 ft | 413 kts | 2° |
| 2026-05-07 00:00 | 11.37906 | -66.75746 | 21922 ft | 415 kts | 2° |
| 2026-05-07 00:00 | 11.40796 | -66.75661 | 22270 ft | 418 kts | 2° |
| 2026-05-07 00:01 | 11.43714 | -66.75575 | 22587 ft | 421 kts | 2° |
| 2026-05-07 00:01 | 11.46648 | -66.75490 | 22903 ft | 424 kts | 1° |
| 2026-05-07 00:01 | 11.49610 | -66.75403 | 23223 ft | 426 kts | 1° |
| 2026-05-07 00:01 | 11.52587 | -66.75317 | 23550 ft | 429 kts | 1° |
| 2026-05-07 00:02 | 11.55578 | -66.75230 | 23870 ft | 431 kts | 1° |
| 2026-05-07 00:02 | 11.58578 | -66.75143 | 24165 ft | 434 kts | 1° |
| 2026-05-07 00:02 | 11.61570 | -66.75056 | 24446 ft | 436 kts | 1° |
| 2026-05-07 00:02 | 11.64611 | -66.74967 | 24730 ft | 438 kts | 1° |
| 2026-05-07 00:03 | 11.67669 | -66.74878 | 24993 ft | 441 kts | 1° |
| 2026-05-07 00:03 | 11.70743 | -66.74789 | 25248 ft | 444 kts | 1° |
| 2026-05-07 00:03 | 11.73846 | -66.74699 | 25546 ft | 446 kts | 1° |
| 2026-05-07 00:03 | 11.76950 | -66.74608 | 25836 ft | 448 kts | 1° |
| 2026-05-07 00:04 | 11.80067 | -66.74517 | 26117 ft | 449 kts | 1° |
| 2026-05-07 00:04 | 11.83192 | -66.74425 | 26392 ft | 451 kts | 1° |
| 2026-05-07 00:04 | 11.86295 | -66.74335 | 26648 ft | 453 kts | 1° |
| 2026-05-07 00:04 | 11.89464 | -66.74243 | 26896 ft | 455 kts | 0° |
| 2026-05-07 00:05 | 11.92622 | -66.74152 | 27144 ft | 457 kts | 0° |
| 2026-05-07 00:05 | 11.95811 | -66.74059 | 27395 ft | 459 kts | 0° |
| 2026-05-07 00:05 | 11.99004 | -66.73966 | 27646 ft | 461 kts | 0° |
| 2026-05-07 00:05 | 12.02212 | -66.73873 | 27903 ft | 463 kts | 0° |
| 2026-05-07 00:06 | 12.05440 | -66.73780 | 28234 ft | 463 kts | 0° |
| 2026-05-07 00:06 | 12.08652 | -66.73686 | 28486 ft | 464 kts | 0° |
| 2026-05-07 00:06 | 12.11843 | -66.73593 | 28808 ft | 464 kts | 360° |
| 2026-05-07 00:06 | 12.15083 | -66.73498 | 29184 ft | 463 kts | 360° |
| 2026-05-07 00:07 | 12.18284 | -66.73404 | 29548 ft | 461 kts | 360° |
| 2026-05-07 00:07 | 12.21484 | -66.73310 | 29942 ft | 460 kts | 359° |
| 2026-05-07 00:07 | 12.24680 | -66.73217 | 30273 ft | 459 kts | 359° |
| 2026-05-07 00:07 | 12.27877 | -66.73125 | 30545 ft | 460 kts | 359° |
| 2026-05-07 00:08 | 12.31076 | -66.73035 | 30820 ft | 460 kts | 359° |
| 2026-05-07 00:08 | 12.34277 | -66.72943 | 31132 ft | 460 kts | 359° |
| 2026-05-07 00:08 | 12.37436 | -66.72851 | 31419 ft | 460 kts | 359° |
| 2026-05-07 00:08 | 12.40608 | -66.72759 | 31685 ft | 460 kts | 359° |
| 2026-05-07 00:09 | 12.43809 | -66.72667 | 31819 ft | 462 kts | 359° |
| 2026-05-07 00:09 | 12.47028 | -66.72573 | 31882 ft | 462 kts | 359° |
| 2026-05-07 00:09 | 12.53436 | -66.72384 | 31923 ft | 460 kts | 359° |
| 2026-05-07 00:10 | 12.59822 | -66.72198 | 31949 ft | 458 kts | 359° |
| 2026-05-07 00:10 | 12.66148 | -66.72014 | 31950 ft | 458 kts | 359° |
| 2026-05-07 00:11 | 12.72526 | -66.71828 | 31952 ft | 459 kts | 359° |
| 2026-05-07 00:11 | 12.78904 | -66.71642 | 31950 ft | 459 kts | 359° |
| 2026-05-07 00:12 | 12.85304 | -66.71454 | 31952 ft | 460 kts | 359° |
| 2026-05-07 00:12 | 12.91692 | -66.71267 | 31951 ft | 459 kts | 359° |
| 2026-05-07 00:13 | 12.98037 | -66.71081 | 31952 ft | 458 kts | 359° |
| 2026-05-07 00:13 | 13.04402 | -66.70895 | 31959 ft | 457 kts | 359° |
| 2026-05-07 00:14 | 13.10770 | -66.70710 | 31960 ft | 458 kts | 359° |
| 2026-05-07 00:14 | 13.17154 | -66.70520 | 31968 ft | 459 kts | 359° |
| 2026-05-07 00:15 | 13.23539 | -66.70328 | 31982 ft | 459 kts | 359° |
| 2026-05-07 00:15 | 13.29882 | -66.70146 | 31985 ft | 458 kts | 359° |
| 2026-05-07 00:16 | 13.36236 | -66.69962 | 31987 ft | 457 kts | 359° |
| 2026-05-07 00:16 | 13.42603 | -66.69776 | 31989 ft | 457 kts | 359° |
| 2026-05-07 00:17 | 13.48968 | -66.69590 | 31991 ft | 458 kts | 359° |
| 2026-05-07 00:17 | 13.55293 | -66.69402 | 31989 ft | 459 kts | 359° |
| 2026-05-07 00:18 | 13.61676 | -66.69214 | 31987 ft | 459 kts | 359° |
| 2026-05-07 00:18 | 13.68065 | -66.69026 | 31997 ft | 459 kts | 359° |
| 2026-05-07 00:19 | 13.74464 | -66.68838 | 31998 ft | 459 kts | 359° |
| 2026-05-07 00:19 | 13.80840 | -66.68650 | 31997 ft | 458 kts | 359° |
| 2026-05-07 00:20 | 13.87150 | -66.68464 | 31998 ft | 457 kts | 359° |
| 2026-05-07 00:20 | 13.93514 | -66.68277 | 31998 ft | 458 kts | 359° |
| 2026-05-07 00:21 | 13.99890 | -66.68090 | 32004 ft | 459 kts | 359° |
| 2026-05-07 00:21 | 14.06275 | -66.67901 | 32006 ft | 459 kts | 359° |
| 2026-05-07 00:22 | 14.12610 | -66.67712 | 32007 ft | 459 kts | 359° |
| 2026-05-07 00:22 | 14.18975 | -66.67523 | 32007 ft | 456 kts | 359° |
| 2026-05-07 00:23 | 14.25316 | -66.67338 | 32010 ft | 456 kts | 359° |
| 2026-05-07 00:23 | 14.31678 | -66.67150 | 32015 ft | 457 kts | 359° |
| 2026-05-07 00:24 | 14.38033 | -66.66962 | 32016 ft | 457 kts | 359° |
| 2026-05-07 00:24 | 14.44355 | -66.66774 | 32016 ft | 458 kts | 359° |
| 2026-05-07 00:25 | 14.50726 | -66.66586 | 32016 ft | 458 kts | 359° |
| 2026-05-07 00:25 | 14.57090 | -66.66399 | 32023 ft | 457 kts | 359° |
| 2026-05-07 00:26 | 14.63438 | -66.66209 | 32025 ft | 456 kts | 359° |
| 2026-05-07 00:26 | 14.69771 | -66.66020 | 32026 ft | 455 kts | 359° |
| 2026-05-07 00:27 | 14.76064 | -66.65833 | 32026 ft | 456 kts | 359° |
| 2026-05-07 00:27 | 14.82401 | -66.65645 | 32032 ft | 456 kts | 359° |
| 2026-05-07 00:28 | 14.88685 | -66.65457 | 32034 ft | 456 kts | 359° |
| 2026-05-07 00:28 | 14.94963 | -66.65271 | 32035 ft | 456 kts | 359° |
| 2026-05-07 00:29 | 15.01222 | -66.65086 | 32035 ft | 456 kts | 359° |
| 2026-05-07 00:30 | 15.13832 | -66.64709 | 32042 ft | 455 kts | 359° |
| 2026-05-07 00:30 | 15.20106 | -66.64521 | 32044 ft | 454 kts | 359° |
| 2026-05-07 00:31 | 15.26290 | -66.64339 | 32044 ft | 454 kts | 359° |
| 2026-05-07 00:31 | 15.32566 | -66.64153 | 32044 ft | 455 kts | 359° |
| 2026-05-07 00:32 | 15.38901 | -66.63964 | 32051 ft | 455 kts | 359° |
| 2026-05-07 00:32 | 15.45236 | -66.63772 | 32053 ft | 455 kts | 359° |
| 2026-05-07 00:33 | 15.51548 | -66.63817 | 32060 ft | 450 kts | 345° |
| 2026-05-07 00:33 | 15.54433 | -66.64836 | 32069 ft | 442 kts | 328° |
| 2026-05-07 00:33 | 15.56869 | -66.66708 | 32088 ft | 435 kts | 311° |
| 2026-05-07 00:34 | 15.58651 | -66.69204 | 32183 ft | 429 kts | 295° |